createdAt,value
2018-07-15T00:02:18.616Z,5.35
2018-07-15T00:04:47.241Z,5.03
2018-07-15T00:07:15.862Z,5.20
2018-07-15T00:09:44.631Z,5.50
2018-07-15T00:12:13.246Z,4.95
2018-07-15T00:14:41.496Z,5.28
2018-07-15T00:17:12.087Z,5.10
2018-07-15T00:19:40.670Z,4.92
2018-07-15T00:22:09.455Z,5.47
2018-07-15T00:24:38.164Z,5.40
2018-07-15T00:27:06.800Z,5.20
2018-07-15T00:29:35.492Z,5.28
2018-07-15T00:32:04.078Z,5.62
2018-07-15T00:34:33.638Z,5.10
2018-07-15T00:37:02.212Z,5.37
2018-07-15T00:39:30.957Z,5.62
2018-07-15T00:41:59.555Z,5.37
2018-07-15T00:44:28.187Z,5.47
2018-07-15T00:46:56.789Z,5.22
2018-07-15T00:49:26.424Z,5.40
2018-07-15T00:51:55.086Z,5.45
2018-07-15T00:54:24.738Z,5.15
2018-07-15T00:56:53.382Z,5.50
2018-07-15T00:59:22.009Z,5.30
2018-07-15T01:01:53.431Z,4.40
2018-07-15T01:04:22.120Z,4.62
2018-07-15T01:06:50.863Z,4.60
2018-07-15T01:09:20.484Z,4.70
2018-07-15T01:11:49.244Z,4.60
2018-07-15T01:14:17.859Z,4.30
2018-07-15T01:16:46.494Z,4.03
2018-07-15T01:19:15.083Z,4.00
2018-07-15T01:21:43.722Z,4.37
2018-07-15T01:24:13.581Z,4.22
2018-07-15T01:26:43.224Z,4.42
2018-07-15T01:29:13.480Z,3.90
2018-07-15T01:31:42.167Z,4.40
2018-07-15T01:34:10.779Z,4.20
2018-07-15T01:36:39.388Z,4.10
2018-07-15T01:39:08.009Z,4.00
2018-07-15T01:41:38.667Z,3.95
2018-07-15T01:44:07.327Z,4.10
2018-07-15T01:46:36.634Z,4.05
2018-07-15T01:49:07.622Z,3.90
2018-07-15T01:51:36.328Z,3.85
2018-07-15T01:54:05.061Z,4.37
2018-07-15T01:56:33.644Z,4.00
2018-07-15T01:59:02.269Z,4.25
2018-07-15T02:01:30.875Z,4.37
2018-07-15T02:03:59.547Z,4.58
2018-07-15T02:06:28.194Z,4.17
2018-07-15T02:08:58.840Z,4.83
2018-07-15T02:11:28.407Z,4.65
2018-07-15T02:13:59.410Z,4.80
2018-07-15T02:16:28.062Z,4.58
2018-07-15T02:18:58.669Z,4.67
2018-07-15T02:21:27.269Z,4.78
2018-07-15T02:23:55.872Z,4.65
2018-07-15T02:26:24.592Z,5.40
2018-07-15T02:28:53.192Z,5.87
2018-07-15T02:31:21.904Z,5.70
2018-07-15T02:33:50.536Z,5.90
2018-07-15T02:36:19.168Z,5.67
2018-07-15T02:38:47.987Z,5.30
2018-07-15T02:41:16.197Z,5.20
2018-07-15T02:43:45.797Z,5.37
2018-07-15T02:46:14.376Z,5.42
2018-07-15T02:48:42.991Z,5.70
2018-07-15T02:51:11.659Z,5.30
2018-07-15T02:53:42.286Z,4.80
2018-07-15T02:56:10.882Z,5.05
2018-07-15T02:58:40.489Z,4.87
2018-07-15T03:01:08.687Z,5.47
2018-07-15T03:03:37.305Z,5.45
2018-07-15T03:06:06.011Z,5.42
2018-07-15T03:08:34.972Z,5.53
2018-07-15T03:11:03.621Z,6.80
2018-07-15T03:13:32.240Z,6.37
2018-07-15T03:16:00.820Z,6.10
2018-07-15T03:18:29.441Z,6.08
2018-07-15T03:20:58.157Z,6.15
2018-07-15T03:23:26.739Z,6.12
2018-07-15T03:25:57.355Z,5.35
2018-07-15T03:28:25.989Z,4.40
2018-07-15T03:30:54.634Z,4.83
2018-07-15T03:33:24.295Z,5.92
2018-07-15T03:35:53.002Z,5.58
2018-07-15T03:38:21.671Z,5.97
2018-07-15T03:40:50.335Z,6.20
2018-07-15T03:43:19.985Z,6.17
2018-07-15T03:45:49.600Z,5.70
2018-07-15T03:48:18.338Z,6.40
2018-07-15T03:50:48.024Z,5.85
2018-07-15T03:53:17.278Z,6.33
2018-07-15T03:55:47.278Z,6.20
2018-07-15T03:58:15.919Z,6.83
2018-07-15T04:00:45.719Z,6.83
2018-07-15T04:03:14.372Z,5.62
2018-07-15T04:05:43.037Z,6.22
2018-07-15T04:08:11.719Z,5.93
2018-07-15T04:10:41.394Z,6.50
2018-07-15T04:13:11.020Z,5.60
2018-07-15T04:15:39.651Z,6.25
2018-07-15T04:18:09.324Z,5.70
2018-07-15T04:20:38.147Z,6.53
2018-07-15T04:23:07.182Z,5.95
2018-07-15T04:25:36.047Z,7.12
2018-07-15T04:28:05.299Z,6.22
2018-07-15T04:30:35.971Z,6.17
2018-07-15T04:33:05.648Z,6.92
2018-07-15T04:35:34.417Z,6.15
2018-07-15T04:38:03.183Z,7.13
2018-07-15T04:40:31.803Z,6.53
2018-07-15T04:43:00.820Z,5.92
2018-07-15T04:45:29.461Z,6.80
2018-07-15T04:47:58.130Z,6.60
2018-07-15T04:50:26.737Z,6.83
2018-07-15T04:52:55.521Z,5.83
2018-07-15T04:55:24.966Z,6.28
2018-07-15T04:57:53.849Z,6.35
2018-07-15T05:00:22.542Z,6.30
2018-07-15T05:02:51.295Z,5.85
2018-07-15T05:05:20.055Z,5.83
2018-07-15T05:07:48.719Z,5.65
2018-07-15T05:10:18.375Z,6.05
2018-07-15T05:12:47.060Z,6.85
2018-07-15T05:15:15.743Z,6.00
2018-07-15T05:17:44.410Z,6.30
2018-07-15T05:20:13.082Z,6.60
2018-07-15T05:22:41.801Z,5.93
2018-07-15T05:25:11.081Z,6.12
2018-07-15T05:27:39.801Z,6.55
2018-07-15T05:30:08.102Z,5.80
2018-07-15T05:32:36.883Z,6.20
2018-07-15T05:35:05.644Z,6.40
2018-07-15T05:37:34.252Z,6.17
2018-07-15T05:40:02.962Z,5.72
2018-07-15T05:42:32.721Z,5.60
2018-07-15T05:45:01.497Z,5.03
2018-07-15T05:47:30.169Z,5.17
2018-07-15T05:49:58.831Z,5.25
2018-07-15T05:52:27.514Z,5.15
2018-07-15T05:54:56.155Z,5.25
2018-07-15T05:57:24.901Z,5.50
2018-07-15T05:59:53.568Z,5.40
2018-07-15T06:02:22.236Z,5.17
2018-07-15T06:04:50.934Z,5.53
2018-07-15T06:07:20.601Z,5.90
2018-07-15T06:09:49.281Z,5.50
2018-07-15T06:12:18.172Z,5.60
2018-07-15T06:14:46.892Z,5.80
2018-07-15T06:17:15.610Z,5.57
2018-07-15T06:19:45.169Z,5.65
2018-07-15T06:22:13.882Z,5.70
2018-07-15T06:24:42.578Z,6.20
2018-07-15T06:27:11.317Z,6.00
2018-07-15T06:29:39.983Z,5.65
2018-07-15T06:32:08.664Z,5.85
2018-07-15T06:34:41.091Z,5.13
2018-07-15T06:37:09.743Z,5.37
2018-07-15T06:39:38.450Z,5.45
2018-07-15T06:42:07.395Z,5.58
2018-07-15T06:44:37.113Z,5.90
2018-07-15T06:47:05.969Z,5.70
2018-07-15T06:49:36.665Z,5.03
2018-07-15T06:52:05.556Z,5.27
2018-07-15T06:54:35.232Z,5.30
2018-07-15T06:57:03.944Z,4.92
2018-07-15T06:59:32.625Z,4.83
2018-07-15T07:02:01.279Z,4.72
2018-07-15T07:04:29.994Z,5.17
2018-07-15T07:06:59.684Z,5.83
2018-07-15T07:09:29.395Z,5.20
2018-07-15T07:11:59.227Z,4.85
2018-07-15T07:14:28.509Z,4.60
2018-07-15T07:16:57.188Z,4.28
2018-07-15T07:19:26.311Z,4.00
2018-07-15T07:21:55.037Z,3.87
2018-07-15T07:24:24.738Z,4.30
2018-07-15T07:26:55.396Z,4.20
2018-07-15T07:29:24.104Z,4.58
2018-07-15T07:31:52.757Z,3.72
2018-07-15T07:34:21.491Z,3.60
2018-07-15T07:36:51.205Z,3.72
2018-07-15T07:39:19.878Z,3.60
2018-07-15T07:41:48.543Z,3.80
2018-07-15T07:44:19.159Z,4.22
2018-07-15T07:46:47.828Z,3.90
2018-07-15T07:49:17.553Z,4.40
2018-07-15T07:51:46.233Z,4.10
2018-07-15T07:54:14.971Z,4.42
2018-07-15T07:56:43.639Z,4.30
2018-07-15T07:59:12.259Z,3.98
2018-07-15T08:01:40.896Z,4.03
2018-07-15T08:04:09.903Z,3.92
2018-07-15T08:06:38.597Z,3.40
2018-07-15T08:09:08.456Z,3.75
2018-07-15T08:11:37.160Z,4.70
2018-07-15T08:14:05.840Z,4.50
2018-07-15T08:16:34.478Z,4.92
2018-07-15T08:19:03.335Z,4.78
2018-07-15T08:21:32.042Z,4.90
2018-07-15T08:24:01.722Z,4.70
2018-07-15T08:26:33.670Z,4.80
2018-07-15T08:29:03.361Z,5.70
2018-07-15T08:31:32.118Z,5.50
2018-07-15T08:34:01.798Z,5.97
2018-07-15T08:36:30.521Z,5.60
2018-07-15T08:38:59.156Z,6.55
2018-07-15T08:41:27.825Z,5.87
2018-07-15T08:43:56.091Z,6.37
2018-07-15T08:46:25.752Z,6.10
2018-07-15T08:48:54.413Z,6.75
2018-07-15T08:51:23.080Z,6.10
2018-07-15T08:53:51.791Z,6.20
2018-07-15T08:56:20.510Z,6.00
2018-07-15T08:58:49.153Z,6.22
2018-07-15T09:01:17.889Z,6.43
2018-07-15T09:03:48.614Z,6.37
2018-07-15T09:06:19.301Z,6.35
2018-07-15T09:08:48.017Z,6.35
2018-07-15T09:11:17.710Z,6.22
2018-07-15T09:13:46.520Z,6.33
2018-07-15T09:16:15.304Z,6.05
2018-07-15T09:18:44.000Z,5.70
2018-07-15T09:21:12.677Z,5.45
2018-07-15T09:23:41.407Z,5.97
2018-07-15T09:26:10.164Z,6.00
2018-07-15T09:28:40.942Z,5.75
2018-07-15T09:31:09.629Z,5.53
2018-07-15T09:33:38.477Z,6.25
2018-07-15T09:36:07.125Z,6.20
2018-07-15T09:38:35.723Z,6.47
2018-07-15T09:41:04.509Z,6.50
2018-07-15T09:43:33.115Z,6.00
2018-07-15T09:46:01.724Z,5.80
2018-07-15T09:48:30.512Z,5.58
2018-07-15T09:51:07.287Z,5.75
2018-07-15T09:53:35.928Z,5.57
2018-07-15T09:56:04.633Z,5.75
2018-07-15T09:58:33.309Z,5.20
2018-07-15T10:01:01.974Z,5.53
2018-07-15T10:03:30.607Z,6.00
2018-07-15T10:06:00.180Z,6.25
2018-07-15T10:08:28.416Z,6.23
2018-07-15T10:10:57.042Z,6.00
2018-07-15T10:13:26.655Z,5.50
2018-07-15T10:15:56.273Z,6.40
2018-07-15T10:18:24.870Z,6.30
2018-07-15T10:20:53.513Z,6.17
2018-07-15T10:23:25.956Z,5.53
2018-07-15T10:25:55.562Z,5.42
2018-07-15T10:28:25.226Z,6.30
2018-07-15T10:30:55.231Z,5.65
2018-07-15T10:33:23.983Z,5.55
2018-07-15T10:35:53.755Z,5.00
2018-07-15T10:38:22.459Z,5.33
2018-07-15T10:40:52.197Z,5.43
2018-07-15T10:43:20.896Z,5.58
2018-07-15T10:45:51.383Z,5.40
2018-07-15T10:48:20.104Z,5.37
2018-07-15T10:50:49.006Z,5.20
2018-07-15T10:53:18.732Z,5.08
2018-07-15T10:55:49.510Z,5.07
2018-07-15T10:58:18.290Z,5.40
2018-07-15T11:00:47.084Z,5.17
2018-07-15T11:03:15.885Z,5.37
2018-07-15T11:05:45.559Z,5.40
2018-07-15T11:08:16.584Z,5.13
2018-07-15T11:10:45.246Z,4.12
2018-07-15T11:13:14.939Z,4.03
2018-07-15T11:15:43.656Z,4.83
2018-07-15T11:18:12.340Z,4.15
2018-07-15T11:20:42.053Z,4.80
2018-07-15T11:23:10.702Z,4.95
2018-07-15T11:25:40.356Z,4.10
2018-07-15T11:28:08.996Z,4.05
2018-07-15T11:30:37.771Z,3.77
2018-07-15T11:33:06.551Z,3.65
2018-07-15T11:35:35.188Z,3.58
2018-07-15T11:38:06.281Z,4.12
2018-07-15T11:40:35.920Z,3.70
2018-07-15T11:43:04.585Z,3.20
2018-07-15T11:45:33.355Z,3.12
2018-07-15T11:48:02.034Z,2.80
2018-07-15T11:50:31.708Z,2.75
2018-07-15T11:53:00.378Z,2.77
2018-07-15T11:55:29.074Z,2.50
2018-07-15T11:57:57.328Z,2.30
2018-07-15T12:00:27.494Z,2.30
2018-07-15T12:02:56.254Z,2.50
2018-07-15T12:05:25.969Z,3.05
2018-07-15T12:07:55.661Z,2.72
2018-07-15T12:10:25.323Z,3.10
2018-07-15T12:12:55.112Z,3.10
2018-07-15T12:15:24.826Z,3.20
2018-07-15T12:17:53.788Z,2.67
2018-07-15T12:20:23.519Z,2.72
2018-07-15T12:22:52.331Z,2.87
2018-07-15T12:25:21.085Z,3.00
2018-07-15T12:27:49.753Z,2.70
2018-07-15T12:30:20.466Z,2.67
2018-07-15T12:32:49.981Z,2.70
2018-07-15T12:35:18.636Z,2.40
2018-07-15T12:37:47.374Z,2.35
2018-07-15T12:40:16.060Z,2.25
2018-07-15T12:42:45.774Z,2.50
2018-07-15T12:45:16.471Z,2.00
2018-07-15T12:47:45.151Z,2.37
2018-07-15T12:50:14.804Z,2.10
2018-07-15T12:52:43.461Z,2.00
2018-07-15T12:55:12.211Z,2.10
2018-07-15T12:57:40.909Z,2.00
2018-07-15T13:00:10.756Z,2.00
2018-07-15T13:02:40.073Z,2.02
2018-07-15T13:05:08.895Z,2.00
2018-07-15T13:07:38.424Z,2.00
2018-07-15T13:10:07.208Z,1.90
2018-07-15T13:12:36.912Z,2.05
2018-07-15T13:15:06.619Z,2.12
2018-07-15T13:17:35.361Z,2.08
2018-07-15T13:20:04.196Z,2.00
2018-07-15T13:22:33.928Z,2.20
2018-07-15T13:25:02.590Z,2.17
2018-07-15T13:27:31.343Z,2.17
2018-07-15T13:30:00.217Z,2.07
2018-07-15T13:32:28.959Z,2.27
2018-07-15T13:34:57.815Z,2.20
2018-07-15T13:37:27.541Z,2.30
2018-07-15T13:39:56.155Z,2.10
2018-07-15T13:42:24.818Z,2.20
2018-07-15T13:44:54.478Z,2.20
2018-07-15T13:47:24.034Z,2.15
2018-07-15T13:49:53.788Z,1.98
2018-07-15T13:52:22.479Z,2.20
2018-07-15T13:54:51.097Z,2.17
2018-07-15T13:57:20.787Z,2.05
2018-07-15T13:59:49.427Z,2.20
2018-07-15T14:02:20.078Z,2.20
2018-07-15T14:04:48.672Z,2.20
2018-07-15T14:07:18.400Z,2.12
2018-07-15T14:09:47.173Z,2.15
2018-07-15T14:12:16.875Z,2.10
2018-07-15T14:14:45.683Z,2.10
2018-07-15T14:17:14.285Z,2.30
2018-07-15T14:19:44.896Z,2.10
2018-07-15T14:22:13.633Z,2.00
2018-07-15T14:24:42.286Z,2.00
2018-07-15T14:27:12.378Z,2.30
2018-07-15T14:29:41.088Z,2.08
2018-07-15T14:32:12.865Z,2.27
2018-07-15T14:34:42.609Z,2.00
2018-07-15T14:37:11.300Z,2.10
2018-07-15T14:39:41.157Z,2.00
2018-07-15T14:42:09.862Z,2.30
2018-07-15T14:44:40.193Z,2.20
2018-07-15T14:47:08.921Z,2.40
2018-07-15T14:49:37.669Z,2.12
2018-07-15T14:52:06.417Z,2.22
2018-07-15T14:54:35.083Z,2.08
2018-07-15T14:57:04.736Z,2.20
2018-07-15T14:59:34.126Z,2.00
2018-07-15T15:02:02.791Z,1.70
2018-07-15T15:04:32.375Z,1.92
2018-07-15T15:07:00.991Z,1.70
2018-07-15T15:09:30.641Z,1.95
2018-07-15T15:11:59.286Z,1.70
2018-07-15T15:14:27.953Z,1.60
2018-07-15T15:16:57.632Z,1.47
2018-07-15T15:19:26.378Z,2.20
2018-07-15T15:21:55.075Z,1.90
2018-07-15T15:24:23.724Z,1.60
2018-07-15T15:26:52.495Z,1.85
2018-07-15T15:29:21.171Z,1.90
2018-07-15T15:31:50.828Z,1.77
2018-07-15T15:34:23.586Z,1.80
2018-07-15T15:36:52.385Z,1.85
2018-07-15T15:39:21.050Z,1.70
2018-07-15T15:41:50.883Z,1.80
2018-07-15T15:44:19.631Z,1.80
2018-07-15T15:46:48.283Z,1.77
2018-07-15T15:49:16.963Z,1.90
2018-07-15T15:51:46.317Z,1.85
2018-07-15T15:54:15.018Z,1.90
2018-07-15T15:56:43.902Z,1.90
2018-07-15T15:59:12.522Z,1.80
2018-07-15T16:01:41.195Z,2.00
2018-07-15T16:04:09.924Z,2.20
2018-07-15T16:06:38.608Z,2.40
2018-07-15T16:09:08.309Z,2.60
2018-07-15T16:11:37.599Z,2.10
2018-07-15T16:14:07.384Z,2.50
2018-07-15T16:16:36.043Z,2.00
2018-07-15T16:19:04.665Z,2.02
2018-07-15T16:21:33.377Z,2.22
2018-07-15T16:24:02.227Z,2.77
2018-07-15T16:26:32.751Z,3.10
2018-07-15T16:29:01.466Z,3.47
2018-07-15T16:31:30.855Z,3.50
2018-07-15T16:33:59.729Z,3.58
2018-07-15T16:36:28.340Z,4.20
2018-07-15T16:38:57.166Z,4.40
2018-07-15T16:41:27.911Z,4.37
2018-07-15T16:43:56.826Z,4.55
2018-07-15T16:46:25.507Z,5.00
2018-07-15T16:48:54.430Z,4.03
2018-07-15T16:51:24.156Z,4.17
2018-07-15T16:53:52.805Z,4.08
2018-07-15T16:56:21.712Z,4.20
2018-07-15T16:58:50.454Z,3.65
2018-07-15T17:01:19.180Z,3.72
2018-07-15T17:03:47.844Z,3.50
2018-07-15T17:06:16.458Z,3.47
2018-07-15T17:08:45.144Z,3.10
2018-07-15T17:11:14.819Z,3.10
2018-07-15T17:13:43.424Z,2.90
2018-07-15T17:16:16.143Z,2.90
2018-07-15T17:18:44.735Z,3.17
2018-07-15T17:21:14.395Z,2.10
2018-07-15T17:23:44.098Z,2.33
2018-07-15T17:26:12.772Z,1.60
2018-07-15T17:28:42.607Z,1.20
2018-07-15T17:31:12.257Z,1.90
2018-07-15T17:33:40.938Z,2.20
2018-07-15T17:36:11.649Z,2.00
2018-07-15T17:38:40.379Z,1.25
2018-07-15T17:41:10.069Z,1.63
2018-07-15T17:43:39.692Z,1.90
2018-07-15T17:46:08.412Z,2.20
2018-07-15T17:48:37.012Z,1.90
2018-07-15T17:51:05.880Z,1.92
2018-07-15T17:53:34.847Z,1.90
2018-07-15T17:56:03.465Z,2.22
2018-07-15T17:58:32.123Z,2.27
2018-07-15T18:01:00.823Z,2.17
2018-07-15T18:03:30.641Z,2.00
2018-07-15T18:06:00.378Z,2.50
2018-07-15T18:08:29.640Z,2.58
2018-07-15T18:10:58.314Z,2.20
2018-07-15T18:13:26.940Z,2.30
2018-07-15T18:15:55.576Z,2.00
2018-07-15T18:18:24.203Z,2.25
2018-07-15T18:20:52.910Z,2.42
2018-07-15T18:23:21.583Z,2.30
2018-07-15T18:25:50.218Z,1.98
2018-07-15T18:28:18.994Z,2.20
2018-07-15T18:30:47.995Z,2.00
2018-07-15T18:33:16.861Z,2.50
2018-07-15T18:35:47.495Z,2.00
2018-07-15T18:38:16.198Z,2.00
2018-07-15T18:40:45.836Z,2.15
2018-07-15T18:43:15.831Z,2.10
2018-07-15T18:45:44.886Z,2.20
2018-07-15T18:48:13.816Z,2.10
2018-07-15T18:50:42.735Z,1.50
2018-07-15T18:53:12.590Z,1.70
2018-07-15T18:55:44.469Z,1.65
2018-07-15T18:58:14.268Z,1.45
2018-07-15T19:00:43.084Z,1.60
2018-07-15T19:03:12.029Z,1.75
2018-07-15T19:05:41.765Z,1.30
2018-07-15T19:08:10.598Z,1.50
2018-07-15T19:10:39.226Z,1.50
2018-07-15T19:13:07.886Z,1.90
2018-07-15T19:15:36.597Z,1.80
2018-07-15T19:18:05.883Z,1.50
2018-07-15T19:20:34.556Z,1.50
2018-07-15T19:23:03.257Z,1.87
2018-07-15T19:25:31.907Z,1.67
2018-07-15T19:28:00.602Z,1.95
2018-07-15T19:30:29.274Z,1.80
2018-07-15T19:32:57.936Z,1.70
2018-07-15T19:35:26.597Z,1.90
2018-07-15T19:37:56.367Z,2.15
2018-07-15T19:40:27.091Z,2.12
2018-07-15T19:42:55.726Z,1.70
2018-07-15T19:45:24.401Z,1.60
2018-07-15T19:47:54.038Z,1.60
2018-07-15T19:50:22.632Z,1.50
2018-07-15T19:52:52.238Z,1.55
2018-07-15T19:55:20.917Z,1.65
2018-07-15T19:57:50.564Z,1.30
2018-07-15T20:00:19.168Z,1.75
2018-07-15T20:02:47.841Z,1.60
2018-07-15T20:05:16.489Z,1.75
2018-07-15T20:07:45.150Z,1.62
2018-07-15T20:10:13.806Z,1.40
2018-07-15T20:12:43.412Z,1.40
2018-07-15T20:15:13.067Z,1.50
2018-07-15T20:17:41.675Z,1.57
2018-07-15T20:20:11.309Z,1.50
2018-07-15T20:22:41.016Z,1.60
2018-07-15T20:25:10.026Z,1.90
2018-07-15T20:27:38.792Z,2.10
2018-07-15T20:30:07.442Z,2.02
2018-07-15T20:32:36.088Z,2.37
2018-07-15T20:35:04.866Z,2.05
2018-07-15T20:37:33.547Z,1.87
2018-07-15T20:40:02.215Z,1.70
2018-07-15T20:42:30.848Z,1.40
2018-07-15T20:44:59.459Z,1.60
2018-07-15T20:47:28.149Z,1.72
2018-07-15T20:49:58.492Z,1.80
2018-07-15T20:52:27.120Z,1.75
2018-07-15T20:54:55.840Z,2.02
2018-07-15T20:57:26.450Z,2.35
2018-07-15T20:59:55.067Z,2.17
2018-07-15T21:02:24.719Z,2.40
2018-07-15T21:04:53.370Z,2.27
2018-07-15T21:07:21.996Z,2.30
2018-07-15T21:09:51.307Z,2.40
2018-07-15T21:12:20.006Z,2.52
2018-07-15T21:14:48.635Z,2.42
2018-07-15T21:17:17.319Z,2.30
2018-07-15T21:19:46.127Z,2.55
2018-07-15T21:22:15.453Z,2.20
2018-07-15T21:24:44.201Z,2.80
2018-07-15T21:27:12.867Z,2.47
2018-07-15T21:29:42.046Z,2.70
2018-07-15T21:32:11.902Z,2.95
2018-07-15T21:34:40.558Z,2.90
2018-07-15T21:37:10.161Z,2.80
2018-07-15T21:39:38.816Z,3.10
2018-07-15T21:42:07.450Z,3.05
2018-07-15T21:44:39.231Z,3.17
2018-07-15T21:47:07.818Z,3.55
2018-07-15T21:49:36.443Z,3.83
2018-07-15T21:52:05.167Z,4.15
2018-07-15T21:54:33.861Z,4.20
2018-07-15T21:57:02.090Z,4.53
2018-07-15T21:59:30.758Z,4.00
2018-07-15T22:01:59.381Z,4.78
2018-07-15T22:04:27.993Z,4.10
2018-07-15T22:07:07.847Z,4.53
2018-07-15T22:09:57.571Z,4.35
2018-07-15T22:12:26.252Z,4.87
2018-07-15T22:14:54.905Z,4.50
2018-07-15T22:17:23.568Z,4.85
2018-07-15T22:19:54.261Z,4.95
2018-07-15T22:22:23.948Z,4.63
2018-07-15T22:24:54.655Z,4.40
2018-07-15T22:27:23.393Z,4.50
2018-07-15T22:29:52.995Z,4.78
2018-07-15T22:32:22.682Z,5.05
2018-07-15T22:34:55.235Z,5.00
2018-07-15T22:37:24.910Z,5.08
2018-07-15T22:39:53.649Z,4.87
2018-07-15T22:42:22.351Z,4.70
2018-07-15T22:44:50.986Z,4.67
2018-07-15T22:47:19.637Z,4.47
2018-07-15T22:49:48.305Z,4.40
2018-07-15T22:52:17.953Z,4.25
2018-07-15T22:54:46.648Z,4.10
2018-07-15T22:57:15.362Z,4.17
2018-07-15T22:59:44.976Z,4.45
2018-07-15T23:02:13.702Z,4.35
2018-07-15T23:05:54.787Z,4.17
2018-07-15T23:08:24.559Z,4.60
2018-07-15T23:10:53.349Z,4.65
2018-07-15T23:13:22.167Z,4.53
2018-07-15T23:15:51.220Z,4.37
2018-07-15T23:18:19.988Z,4.67
2018-07-15T23:20:50.239Z,4.50
2018-07-15T23:23:18.913Z,4.25
2018-07-15T23:25:47.587Z,4.35
2018-07-15T23:28:17.300Z,4.30
2018-07-15T23:30:46.337Z,4.37
2018-07-15T23:33:14.997Z,4.28
2018-07-15T23:35:44.637Z,4.58
2018-07-15T23:38:13.265Z,4.05
2018-07-15T23:40:42.042Z,4.62
2018-07-15T23:43:10.704Z,4.53
2018-07-15T23:45:39.461Z,4.25
2018-07-15T23:48:08.163Z,4.30
2018-07-15T23:50:37.124Z,4.15
2018-07-15T23:53:05.899Z,3.90
2018-07-15T23:55:34.550Z,4.55
2018-07-15T23:58:03.256Z,4.20
